sensor_id;sensor_type;location;lat;lon;timestamp;pressure;altitude;pressure_sealevel;temperature;humidity
36852;BME280;22784;52.476;13.424;2022-09-29T00:03:28;99370.50;;;12.26;86.85
36852;BME280;22784;52.476;13.424;2022-09-29T00:07:34;99376.31;;;12.28;86.99
36852;BME280;22784;52.476;13.424;2022-09-29T00:11:40;99376.94;;;12.32;86.60
36852;BME280;22784;52.476;13.424;2022-09-29T00:15:44;99376.84;;;12.36;86.53
36852;BME280;22784;52.476;13.424;2022-09-29T00:19:47;99378.19;;;12.31;86.54
36852;BME280;22784;52.476;13.424;2022-09-29T00:23:53;99360.50;;;12.19;86.67
36852;BME280;22784;52.476;13.424;2022-09-29T00:28:00;99359.09;;;12.15;86.54
36852;BME280;22784;52.476;13.424;2022-09-29T00:32:06;99366.47;;;12.18;86.68
36852;BME280;22784;52.476;13.424;2022-09-29T00:36:12;99371.38;;;12.23;86.49
36852;BME280;22784;52.476;13.424;2022-09-29T00:40:21;99368.84;;;12.16;86.64
36852;BME280;22784;52.476;13.424;2022-09-29T00:45:01;99351.22;;;12.17;86.67
36852;BME280;22784;52.476;13.424;2022-09-29T00:49:13;99325.25;;;12.09;86.57
36852;BME280;22784;52.476;13.424;2022-09-29T00:53:23;99362.28;;;12.26;86.61
36852;BME280;22784;52.476;13.424;2022-09-29T00:57:32;99353.75;;;12.24;86.19
36852;BME280;22784;52.476;13.424;2022-09-29T01:01:40;99364.78;;;12.33;86.08
36852;BME280;22784;52.476;13.424;2022-09-29T01:05:46;99373.91;;;12.43;86.01
36852;BME280;22784;52.476;13.424;2022-09-29T01:09:53;99359.88;;;12.28;86.06
36852;BME280;22784;52.476;13.424;2022-09-29T01:14:15;99378.59;;;12.42;85.92
36852;BME280;22784;52.476;13.424;2022-09-29T01:18:24;99341.47;;;12.16;85.82
36852;BME280;22784;52.476;13.424;2022-09-29T01:22:57;99389.09;;;12.44;85.20
36852;BME280;22784;52.476;13.424;2022-09-29T01:27:14;99398.56;;;12.43;85.59
36852;BME280;22784;52.476;13.424;2022-09-29T01:31:29;99406.31;;;12.44;85.45
36852;BME280;22784;52.476;13.424;2022-09-29T01:35:41;99399.09;;;12.38;85.11
36852;BME280;22784;52.476;13.424;2022-09-29T01:39:53;99409.19;;;12.41;84.83
36852;BME280;22784;52.476;13.424;2022-09-29T01:44:05;99411.59;;;12.39;84.85
36852;BME280;22784;52.476;13.424;2022-09-29T01:48:17;99420.56;;;12.39;84.95
36852;BME280;22784;52.476;13.424;2022-09-29T01:52:26;99417.06;;;12.39;84.77
36852;BME280;22784;52.476;13.424;2022-09-29T01:56:37;99421.78;;;12.38;84.67
36852;BME280;22784;52.476;13.424;2022-09-29T02:00:47;99405.56;;;12.31;84.57
36852;BME280;22784;52.476;13.424;2022-09-29T02:04:56;99421.69;;;12.42;84.56
36852;BME280;22784;52.476;13.424;2022-09-29T02:09:11;99430.34;;;12.40;84.08
36852;BME280;22784;52.476;13.424;2022-09-29T02:13:18;99425.41;;;12.35;84.58
36852;BME280;22784;52.476;13.424;2022-09-29T02:17:26;99430.00;;;12.38;84.58
36852;BME280;22784;52.476;13.424;2022-09-29T02:21:34;99410.06;;;12.25;84.54
36852;BME280;22784;52.476;13.424;2022-09-29T02:25:41;99403.47;;;12.22;84.06
36852;BME280;22784;52.476;13.424;2022-09-29T02:29:48;99421.13;;;12.21;84.46
36852;BME280;22784;52.476;13.424;2022-09-29T02:33:53;99416.09;;;12.07;84.74
36852;BME280;22784;52.476;13.424;2022-09-29T02:38:03;99416.59;;;12.02;85.04
36852;BME280;22784;52.476;13.424;2022-09-29T02:42:19;99439.94;;;12.19;85.71
36852;BME280;22784;52.476;13.424;2022-09-29T02:46:39;99444.00;;;12.15;85.53
36852;BME280;22784;52.476;13.424;2022-09-29T02:50:52;99438.09;;;12.04;85.73
36852;BME280;22784;52.476;13.424;2022-09-29T02:55:07;99446.31;;;12.04;86.69
36852;BME280;22784;52.476;13.424;2022-09-29T02:59:17;99457.16;;;12.20;86.70
36852;BME280;22784;52.476;13.424;2022-09-29T03:03:24;99449.28;;;12.22;86.33
36852;BME280;22784;52.476;13.424;2022-09-29T03:07:31;99416.38;;;11.97;86.32
36852;BME280;22784;52.476;13.424;2022-09-29T03:11:39;99415.84;;;12.02;86.63
36852;BME280;22784;52.476;13.424;2022-09-29T03:15:43;99447.53;;;12.28;86.00
36852;BME280;22784;52.476;13.424;2022-09-29T03:19:50;99453.22;;;12.21;86.06
36852;BME280;22784;52.476;13.424;2022-09-29T03:23:53;99449.84;;;12.29;86.06
36852;BME280;22784;52.476;13.424;2022-09-29T03:28:00;99432.06;;;12.21;85.68
36852;BME280;22784;52.476;13.424;2022-09-29T03:32:04;99457.84;;;12.37;85.96
36852;BME280;22784;52.476;13.424;2022-09-29T03:36:09;99449.06;;;12.42;85.81
36852;BME280;22784;52.476;13.424;2022-09-29T03:40:12;99446.66;;;12.44;85.48
36852;BME280;22784;52.476;13.424;2022-09-29T03:44:20;99456.63;;;12.50;85.23
36852;BME280;22784;52.476;13.424;2022-09-29T03:48:23;99402.06;;;12.18;85.56
36852;BME280;22784;52.476;13.424;2022-09-29T03:52:30;99460.56;;;12.49;85.14
36852;BME280;22784;52.476;13.424;2022-09-29T03:56:35;99456.19;;;12.52;85.50
36852;BME280;22784;52.476;13.424;2022-09-29T04:00:43;99471.31;;;12.56;85.46
36852;BME280;22784;52.476;13.424;2022-09-29T04:04:49;99474.41;;;12.58;85.70
36852;BME280;22784;52.476;13.424;2022-09-29T04:08:53;99473.41;;;12.65;85.46
36852;BME280;22784;52.476;13.424;2022-09-29T04:12:56;99435.25;;;12.45;85.43
36852;BME280;22784;52.476;13.424;2022-09-29T04:17:02;99481.28;;;12.76;85.21
36852;BME280;22784;52.476;13.424;2022-09-29T04:21:06;99463.44;;;12.71;85.14
36852;BME280;22784;52.476;13.424;2022-09-29T04:25:10;99476.91;;;12.78;84.75
36852;BME280;22784;52.476;13.424;2022-09-29T04:29:14;99470.53;;;12.56;84.42
36852;BME280;22784;52.476;13.424;2022-09-29T04:33:20;99483.91;;;12.66;85.03
36852;BME280;22784;52.476;13.424;2022-09-29T04:37:23;99491.81;;;12.64;84.79
36852;BME280;22784;52.476;13.424;2022-09-29T04:41:28;99488.31;;;12.51;85.18
36852;BME280;22784;52.476;13.424;2022-09-29T04:45:34;99496.97;;;12.50;84.97
36852;BME280;22784;52.476;13.424;2022-09-29T04:49:40;99502.44;;;12.50;85.33
36852;BME280;22784;52.476;13.424;2022-09-29T04:53:44;99500.81;;;12.52;85.56
36852;BME280;22784;52.476;13.424;2022-09-29T04:57:47;99505.19;;;12.62;85.01
36852;BME280;22784;52.476;13.424;2022-09-29T05:01:51;99502.78;;;12.64;84.64
36852;BME280;22784;52.476;13.424;2022-09-29T05:05:57;99477.56;;;12.44;84.56
36852;BME280;22784;52.476;13.424;2022-09-29T05:10:01;99515.19;;;12.69;84.68
36852;BME280;22784;52.476;13.424;2022-09-29T05:14:05;99516.59;;;12.73;84.68
36852;BME280;22784;52.476;13.424;2022-09-29T05:18:08;99518.78;;;12.79;84.42
36852;BME280;22784;52.476;13.424;2022-09-29T05:22:14;99519.25;;;12.77;83.78
36852;BME280;22784;52.476;13.424;2022-09-29T05:26:26;99475.16;;;12.46;83.76
36852;BME280;22784;52.476;13.424;2022-09-29T05:30:30;99512.88;;;12.67;83.77
36852;BME280;22784;52.476;13.424;2022-09-29T05:34:34;99517.78;;;12.72;83.79
36852;BME280;22784;52.476;13.424;2022-09-29T05:38:40;99529.00;;;12.78;83.61
36852;BME280;22784;52.476;13.424;2022-09-29T05:42:43;99531.84;;;12.75;83.75
36852;BME280;22784;52.476;13.424;2022-09-29T05:46:47;99530.44;;;12.83;83.73
36852;BME280;22784;52.476;13.424;2022-09-29T05:50:50;99524.59;;;12.81;83.89
36852;BME280;22784;52.476;13.424;2022-09-29T05:54:56;99509.25;;;12.70;83.54
36852;BME280;22784;52.476;13.424;2022-09-29T05:59:00;99534.03;;;12.80;83.90
36852;BME280;22784;52.476;13.424;2022-09-29T06:03:03;99538.53;;;12.73;83.68
36852;BME280;22784;52.476;13.424;2022-09-29T06:07:07;99541.94;;;12.78;83.89
36852;BME280;22784;52.476;13.424;2022-09-29T06:11:17;99533.81;;;12.74;83.81
36852;BME280;22784;52.476;13.424;2022-09-29T06:15:21;99538.75;;;12.66;83.07
36852;BME280;22784;52.476;13.424;2022-09-29T06:19:27;99515.47;;;12.33;83.44
36852;BME280;22784;52.476;13.424;2022-09-29T06:23:34;99544.88;;;12.45;84.23
36852;BME280;22784;52.476;13.424;2022-09-29T06:27:40;99543.91;;;12.52;84.63
36852;BME280;22784;52.476;13.424;2022-09-29T06:31:44;99557.59;;;12.52;84.43
36852;BME280;22784;52.476;13.424;2022-09-29T06:35:48;99556.84;;;12.64;84.39
36852;BME280;22784;52.476;13.424;2022-09-29T06:40:06;99533.56;;;12.43;83.34
36852;BME280;22784;52.476;13.424;2022-09-29T06:44:13;99553.44;;;12.47;83.96
36852;BME280;22784;52.476;13.424;2022-09-29T06:48:17;99518.19;;;12.20;83.26
36852;BME280;22784;52.476;13.424;2022-09-29T06:52:21;99552.00;;;12.43;84.00
36852;BME280;22784;52.476;13.424;2022-09-29T06:56:26;99512.94;;;12.13;83.68
36852;BME280;22784;52.476;13.424;2022-09-29T07:00:32;99568.88;;;12.41;83.72
36852;BME280;22784;52.476;13.424;2022-09-29T07:04:36;99573.34;;;12.35;83.96
36852;BME280;22784;52.476;13.424;2022-09-29T07:08:40;99576.28;;;12.28;84.18
36852;BME280;22784;52.476;13.424;2022-09-29T07:12:43;99571.59;;;12.28;84.48
36852;BME280;22784;52.476;13.424;2022-09-29T07:16:51;99570.16;;;12.24;84.37
36852;BME280;22784;52.476;13.424;2022-09-29T07:20:55;99575.09;;;12.29;84.60
36852;BME280;22784;52.476;13.424;2022-09-29T07:25:02;99583.78;;;12.40;84.59
36852;BME280;22784;52.476;13.424;2022-09-29T07:29:06;99580.06;;;12.47;84.62
36852;BME280;22784;52.476;13.424;2022-09-29T07:33:12;99578.91;;;12.60;84.82
36852;BME280;22784;52.476;13.424;2022-09-29T07:37:16;99595.91;;;12.81;83.66
36852;BME280;22784;52.476;13.424;2022-09-29T07:41:21;99576.06;;;12.77;82.81
36852;BME280;22784;52.476;13.424;2022-09-29T07:45:24;99593.34;;;12.73;82.21
36852;BME280;22784;52.476;13.424;2022-09-29T07:49:31;99599.63;;;12.74;82.52
36852;BME280;22784;52.476;13.424;2022-09-29T07:53:35;99609.03;;;12.60;83.29
36852;BME280;22784;52.476;13.424;2022-09-29T07:57:39;99614.75;;;12.66;83.70
36852;BME280;22784;52.476;13.424;2022-09-29T08:01:42;99602.69;;;12.76;83.66
36852;BME280;22784;52.476;13.424;2022-09-29T08:05:49;99609.50;;;12.84;83.43
36852;BME280;22784;52.476;13.424;2022-09-29T08:09:52;99606.31;;;12.86;82.74
36852;BME280;22784;52.476;13.424;2022-09-29T08:13:56;99623.22;;;13.09;83.72
36852;BME280;22784;52.476;13.424;2022-09-29T08:18:00;99595.16;;;13.18;83.21
36852;BME280;22784;52.476;13.424;2022-09-29T08:22:06;99587.91;;;13.24;81.77
36852;BME280;22784;52.476;13.424;2022-09-29T08:26:11;99631.88;;;13.71;81.64
36852;BME280;22784;52.476;13.424;2022-09-29T08:30:16;99598.94;;;13.59;80.04
36852;BME280;22784;52.476;13.424;2022-09-29T08:34:20;99625.06;;;13.63;79.17
36852;BME280;22784;52.476;13.424;2022-09-29T08:38:26;99639.09;;;13.78;80.53
36852;BME280;22784;52.476;13.424;2022-09-29T08:42:41;99639.25;;;13.96;79.98
36852;BME280;22784;52.476;13.424;2022-09-29T08:46:52;99610.06;;;13.89;79.65
36852;BME280;22784;52.476;13.424;2022-09-29T08:51:01;99613.78;;;13.96;77.84
36852;BME280;22784;52.476;13.424;2022-09-29T08:55:21;99645.09;;;14.20;77.81
36852;BME280;22784;52.476;13.424;2022-09-29T08:59:27;99613.03;;;14.17;78.44
36852;BME280;22784;52.476;13.424;2022-09-29T09:03:50;99650.47;;;14.58;77.75
36852;BME280;22784;52.476;13.424;2022-09-29T09:08:02;99612.94;;;14.42;75.89
36852;BME280;22784;52.476;13.424;2022-09-29T09:17:03;99668.69;;;14.64;76.09
36852;BME280;22784;52.476;13.424;2022-09-29T09:21:17;99652.72;;;14.81;76.58
36852;BME280;22784;52.476;13.424;2022-09-29T09:25:27;99663.03;;;14.90;73.20
36852;BME280;22784;52.476;13.424;2022-09-29T09:29:37;99671.41;;;15.17;75.14
36852;BME280;22784;52.476;13.424;2022-09-29T09:33:47;99655.56;;;15.30;72.85
36852;BME280;22784;52.476;13.424;2022-09-29T09:37:55;99665.16;;;15.56;72.64
36852;BME280;22784;52.476;13.424;2022-09-29T09:42:07;99673.19;;;15.82;70.51
36852;BME280;22784;52.476;13.424;2022-09-29T09:46:22;99673.66;;;15.98;69.23
36852;BME280;22784;52.476;13.424;2022-09-29T09:50:27;99639.38;;;16.00;67.81
36852;BME280;22784;52.476;13.424;2022-09-29T09:54:34;99676.28;;;16.02;65.97
36852;BME280;22784;52.476;13.424;2022-09-29T09:58:54;99620.28;;;15.47;67.49
36852;BME280;22784;52.476;13.424;2022-09-29T10:03:06;99673.81;;;15.95;66.65
36852;BME280;22784;52.476;13.424;2022-09-29T10:07:11;99677.97;;;16.00;67.85
36852;BME280;22784;52.476;13.424;2022-09-29T10:11:22;99674.88;;;15.97;64.29
36852;BME280;22784;52.476;13.424;2022-09-29T10:15:29;99682.13;;;16.13;66.32
36852;BME280;22784;52.476;13.424;2022-09-29T10:19:55;99695.13;;;16.76;65.81
36852;BME280;22784;52.476;13.424;2022-09-29T10:24:02;99693.09;;;16.95;63.65
36852;BME280;22784;52.476;13.424;2022-09-29T10:28:12;99664.28;;;16.87;62.46
36852;BME280;22784;52.476;13.424;2022-09-29T10:32:22;99696.47;;;16.99;58.89
36852;BME280;22784;52.476;13.424;2022-09-29T10:36:50;99680.34;;;17.07;60.50
36852;BME280;22784;52.476;13.424;2022-09-29T10:40:55;99704.13;;;17.46;59.21
36852;BME280;22784;52.476;13.424;2022-09-29T10:45:09;99695.66;;;17.50;58.31
36852;BME280;22784;52.476;13.424;2022-09-29T10:49:14;99706.31;;;17.42;56.25
36852;BME280;22784;52.476;13.424;2022-09-29T10:53:30;99700.47;;;17.40;57.70
36852;BME280;22784;52.476;13.424;2022-09-29T10:57:37;99693.25;;;17.43;55.97
36852;BME280;22784;52.476;13.424;2022-09-29T11:01:43;99705.56;;;17.33;57.17
36852;BME280;22784;52.476;13.424;2022-09-29T11:05:51;99691.25;;;17.01;58.22
36852;BME280;22784;52.476;13.424;2022-09-29T11:09:59;99699.66;;;17.07;58.26
36852;BME280;22784;52.476;13.424;2022-09-29T11:14:22;99684.81;;;16.95;59.37
36852;BME280;22784;52.476;13.424;2022-09-29T11:18:30;99716.06;;;17.19;57.80
36852;BME280;22784;52.476;13.424;2022-09-29T11:27:32;99712.56;;;17.01;57.50
36852;BME280;22784;52.476;13.424;2022-09-29T11:31:52;99716.78;;;17.29;57.78
36852;BME280;22784;52.476;13.424;2022-09-29T11:36:04;99724.41;;;17.43;56.47
36852;BME280;22784;52.476;13.424;2022-09-29T11:40:19;99695.97;;;17.10;56.18
36852;BME280;22784;52.476;13.424;2022-09-29T11:44:43;99676.69;;;16.92;56.26
36852;BME280;22784;52.476;13.424;2022-09-29T11:49:00;99719.72;;;17.16;56.02
36852;BME280;22784;52.476;13.424;2022-09-29T11:53:38;99731.56;;;17.08;56.56
36852;BME280;22784;52.476;13.424;2022-09-29T11:57:57;99729.94;;;16.83;56.27
36852;BME280;22784;52.476;13.424;2022-09-29T12:02:21;99733.31;;;16.60;56.59
36852;BME280;22784;52.476;13.424;2022-09-29T12:06:55;99710.31;;;16.35;57.84
36852;BME280;22784;52.476;13.424;2022-09-29T12:11:03;99696.97;;;16.25;56.70
36852;BME280;22784;52.476;13.424;2022-09-29T12:15:25;99739.41;;;16.46;56.90
36852;BME280;22784;52.476;13.424;2022-09-29T12:19:38;99716.13;;;16.28;57.36
36852;BME280;22784;52.476;13.424;2022-09-29T12:23:43;99716.88;;;16.38;55.61
36852;BME280;22784;52.476;13.424;2022-09-29T12:27:50;99694.50;;;16.27;55.38
36852;BME280;22784;52.476;13.424;2022-09-29T12:31:57;99721.19;;;16.75;56.27
36852;BME280;22784;52.476;13.424;2022-09-29T12:36:26;99726.28;;;17.28;54.48
36852;BME280;22784;52.476;13.424;2022-09-29T12:40:50;99699.81;;;17.54;55.17
36852;BME280;22784;52.476;13.424;2022-09-29T12:45:04;99718.19;;;17.67;52.35
36852;BME280;22784;52.476;13.424;2022-09-29T12:49:15;99725.88;;;17.63;50.77
36852;BME280;22784;52.476;13.424;2022-09-29T12:53:28;99725.91;;;17.53;49.73
36852;BME280;22784;52.476;13.424;2022-09-29T12:57:37;99716.16;;;17.34;51.01
36852;BME280;22784;52.476;13.424;2022-09-29T13:01:41;99712.66;;;17.25;51.07
36852;BME280;22784;52.476;13.424;2022-09-29T13:06:03;99727.66;;;17.33;50.24
36852;BME280;22784;52.476;13.424;2022-09-29T13:10:57;99730.28;;;17.27;51.26
36852;BME280;22784;52.476;13.424;2022-09-29T13:15:16;99732.06;;;17.48;51.04
36852;BME280;22784;52.476;13.424;2022-09-29T13:24:23;99744.19;;;18.79;48.89
36852;BME280;22784;52.476;13.424;2022-09-29T13:28:38;99736.03;;;18.61;49.08
36852;BME280;22784;52.476;13.424;2022-09-29T13:32:44;99745.03;;;18.47;47.46
36852;BME280;22784;52.476;13.424;2022-09-29T13:36:50;99751.22;;;18.18;47.20
36852;BME280;22784;52.476;13.424;2022-09-29T13:41:16;99750.53;;;18.08;48.10
36852;BME280;22784;52.476;13.424;2022-09-29T13:45:43;99729.44;;;17.87;45.82
36852;BME280;22784;52.476;13.424;2022-09-29T13:49:47;99740.97;;;17.85;46.97
36852;BME280;22784;52.476;13.424;2022-09-29T13:54:24;99761.03;;;17.95;47.97
36852;BME280;22784;52.476;13.424;2022-09-29T13:58:30;99730.41;;;17.84;47.51
36852;BME280;22784;52.476;13.424;2022-09-29T14:02:38;99756.78;;;17.85;46.45
36852;BME280;22784;52.476;13.424;2022-09-29T14:06:45;99764.34;;;17.75;47.47
36852;BME280;22784;52.476;13.424;2022-09-29T14:10:54;99745.25;;;17.44;47.45
36852;BME280;22784;52.476;13.424;2022-09-29T14:15:01;99710.69;;;17.16;49.48
36852;BME280;22784;52.476;13.424;2022-09-29T14:19:20;99769.94;;;17.57;47.91
36852;BME280;22784;52.476;13.424;2022-09-29T14:23:49;99769.03;;;17.60;47.52
36852;BME280;22784;52.476;13.424;2022-09-29T14:28:02;99780.03;;;17.69;45.80
36852;BME280;22784;52.476;13.424;2022-09-29T14:32:12;99737.75;;;17.45;44.93
36852;BME280;22784;52.476;13.424;2022-09-29T14:36:23;99766.09;;;17.64;44.07
36852;BME280;22784;52.476;13.424;2022-09-29T14:40:28;99774.22;;;17.67;43.65
36852;BME280;22784;52.476;13.424;2022-09-29T14:44:34;99783.13;;;17.71;43.13
36852;BME280;22784;52.476;13.424;2022-09-29T14:49:07;99789.16;;;17.61;44.45
36852;BME280;22784;52.476;13.424;2022-09-29T14:53:53;99789.03;;;17.37;45.49
36852;BME280;22784;52.476;13.424;2022-09-29T14:58:13;99795.66;;;17.30;45.89
36852;BME280;22784;52.476;13.424;2022-09-29T15:02:25;99768.41;;;16.96;46.34
36852;BME280;22784;52.476;13.424;2022-09-29T15:06:31;99760.44;;;16.89;46.61
36852;BME280;22784;52.476;13.424;2022-09-29T15:10:41;99738.69;;;16.63;46.35
36852;BME280;22784;52.476;13.424;2022-09-29T15:14:46;99780.53;;;16.89;46.80
36852;BME280;22784;52.476;13.424;2022-09-29T15:19:04;99806.56;;;17.06;47.15
36852;BME280;22784;52.476;13.424;2022-09-29T15:23:37;99808.56;;;17.06;47.70
36852;BME280;22784;52.476;13.424;2022-09-29T15:27:51;99804.28;;;16.96;47.20
36852;BME280;22784;52.476;13.424;2022-09-29T15:31:56;99824.97;;;17.00;47.06
36852;BME280;22784;52.476;13.424;2022-09-29T15:36:02;99825.28;;;17.02;48.08
36852;BME280;22784;52.476;13.424;2022-09-29T15:40:13;99813.47;;;16.93;47.38
36852;BME280;22784;52.476;13.424;2022-09-29T15:44:20;99834.19;;;17.06;47.39
36852;BME280;22784;52.476;13.424;2022-09-29T15:48:30;99829.13;;;17.05;47.02
36852;BME280;22784;52.476;13.424;2022-09-29T15:52:33;99817.31;;;16.86;47.50
36852;BME280;22784;52.476;13.424;2022-09-29T15:56:38;99831.72;;;16.99;46.62
36852;BME280;22784;52.476;13.424;2022-09-29T16:01:04;99807.34;;;16.70;46.75
36852;BME280;22784;52.476;13.424;2022-09-29T16:05:10;99827.28;;;16.74;46.97
36852;BME280;22784;52.476;13.424;2022-09-29T16:09:18;99835.56;;;16.65;47.85
36852;BME280;22784;52.476;13.424;2022-09-29T16:13:24;99836.56;;;16.50;48.78
36852;BME280;22784;52.476;13.424;2022-09-29T16:17:31;99831.03;;;16.31;49.55
36852;BME280;22784;52.476;13.424;2022-09-29T16:21:36;99820.25;;;16.15;49.74
36852;BME280;22784;52.476;13.424;2022-09-29T16:25:41;99834.19;;;16.21;50.08
36852;BME280;22784;52.476;13.424;2022-09-29T16:29:45;99848.13;;;16.17;50.44
36852;BME280;22784;52.476;13.424;2022-09-29T16:33:55;99853.31;;;16.15;51.09
36852;BME280;22784;52.476;13.424;2022-09-29T16:38:00;99871.84;;;16.15;51.39
36852;BME280;22784;52.476;13.424;2022-09-29T16:42:03;99878.22;;;16.03;51.80
36852;BME280;22784;52.476;13.424;2022-09-29T16:46:10;99842.56;;;15.68;52.80
36852;BME280;22784;52.476;13.424;2022-09-29T16:50:20;99880.72;;;15.79;53.85
36852;BME280;22784;52.476;13.424;2022-09-29T16:54:26;99882.41;;;15.76;54.72
36852;BME280;22784;52.476;13.424;2022-09-29T16:58:32;99896.13;;;15.67;55.19
36852;BME280;22784;52.476;13.424;2022-09-29T17:02:36;99908.81;;;15.65;55.59
36852;BME280;22784;52.476;13.424;2022-09-29T17:06:44;99913.03;;;15.56;56.35
36852;BME280;22784;52.476;13.424;2022-09-29T17:10:49;99925.03;;;15.50;57.25
36852;BME280;22784;52.476;13.424;2022-09-29T17:14:53;99932.25;;;15.47;58.16
36852;BME280;22784;52.476;13.424;2022-09-29T17:18:57;99921.03;;;15.42;58.51
36852;BME280;22784;52.476;13.424;2022-09-29T17:23:04;99923.78;;;15.42;59.08
36852;BME280;22784;52.476;13.424;2022-09-29T17:27:08;99948.84;;;15.56;59.00
36852;BME280;22784;52.476;13.424;2022-09-29T17:31:24;99946.31;;;15.49;59.75
36852;BME280;22784;52.476;13.424;2022-09-29T17:35:30;99957.47;;;15.46;60.02
36852;BME280;22784;52.476;13.424;2022-09-29T17:39:36;99961.88;;;15.43;60.48
36852;BME280;22784;52.476;13.424;2022-09-29T17:43:40;99965.09;;;15.42;61.22
36852;BME280;22784;52.476;13.424;2022-09-29T17:47:47;99967.63;;;15.36;61.51
36852;BME280;22784;52.476;13.424;2022-09-29T17:51:51;99944.34;;;15.15;61.96
36852;BME280;22784;52.476;13.424;2022-09-29T17:55:57;99971.50;;;15.26;62.06
36852;BME280;22784;52.476;13.424;2022-09-29T18:00:13;99970.22;;;15.18;62.22
36852;BME280;22784;52.476;13.424;2022-09-29T18:04:19;99975.97;;;15.11;62.62
36852;BME280;22784;52.476;13.424;2022-09-29T18:08:26;99982.88;;;15.15;63.44
36852;BME280;22784;52.476;13.424;2022-09-29T18:12:35;99980.69;;;15.10;63.26
36852;BME280;22784;52.476;13.424;2022-09-29T18:16:39;99986.34;;;15.07;63.48
36852;BME280;22784;52.476;13.424;2022-09-29T18:20:43;100002.59;;;15.14;64.15
36852;BME280;22784;52.476;13.424;2022-09-29T18:24:50;99938.69;;;14.85;64.67
36852;BME280;22784;52.476;13.424;2022-09-29T18:28:56;99999.59;;;15.21;64.68
36852;BME280;22784;52.476;13.424;2022-09-29T18:33:01;99969.28;;;14.99;64.49
36852;BME280;22784;52.476;13.424;2022-09-29T18:37:04;100002.59;;;15.14;64.45
36852;BME280;22784;52.476;13.424;2022-09-29T18:41:09;100008.34;;;15.07;65.15
36852;BME280;22784;52.476;13.424;2022-09-29T18:45:20;100007.25;;;15.04;65.51
36852;BME280;22784;52.476;13.424;2022-09-29T18:49:25;100000.41;;;14.96;65.46
36852;BME280;22784;52.476;13.424;2022-09-29T18:53:28;100001.25;;;14.84;65.94
36852;BME280;22784;52.476;13.424;2022-09-29T18:57:33;100002.88;;;14.82;66.96
36852;BME280;22784;52.476;13.424;2022-09-29T19:01:39;100000.25;;;14.78;67.05
36852;BME280;22784;52.476;13.424;2022-09-29T19:05:43;100006.41;;;14.82;66.99
36852;BME280;22784;52.476;13.424;2022-09-29T19:09:47;100000.03;;;14.72;66.92
36852;BME280;22784;52.476;13.424;2022-09-29T19:13:53;100014.75;;;14.79;67.39
36852;BME280;22784;52.476;13.424;2022-09-29T19:17:59;100008.50;;;14.65;67.13
36852;BME280;22784;52.476;13.424;2022-09-29T19:22:03;100023.69;;;14.70;67.46
36852;BME280;22784;52.476;13.424;2022-09-29T19:26:14;100012.56;;;14.61;67.69
36852;BME280;22784;52.476;13.424;2022-09-29T19:30:23;100006.31;;;14.48;67.93
36852;BME280;22784;52.476;13.424;2022-09-29T19:34:31;100027.41;;;14.63;68.26
36852;BME280;22784;52.476;13.424;2022-09-29T19:38:36;99993.84;;;14.43;68.04
36852;BME280;22784;52.476;13.424;2022-09-29T19:42:40;100029.94;;;14.58;67.68
36852;BME280;22784;52.476;13.424;2022-09-29T19:46:44;100027.53;;;14.47;68.32
36852;BME280;22784;52.476;13.424;2022-09-29T19:50:55;100014.91;;;14.21;68.70
36852;BME280;22784;52.476;13.424;2022-09-29T19:55:11;100036.94;;;14.33;69.72
36852;BME280;22784;52.476;13.424;2022-09-29T19:59:17;100038.03;;;14.36;70.25
36852;BME280;22784;52.476;13.424;2022-09-29T20:03:20;100008.88;;;14.13;70.03
36852;BME280;22784;52.476;13.424;2022-09-29T20:07:27;100023.63;;;14.19;69.78
36852;BME280;22784;52.476;13.424;2022-09-29T20:11:31;100014.38;;;14.13;70.55
36852;BME280;22784;52.476;13.424;2022-09-29T20:15:40;100041.66;;;14.33;70.85
36852;BME280;22784;52.476;13.424;2022-09-29T20:19:49;100051.88;;;14.32;70.10
36852;BME280;22784;52.476;13.424;2022-09-29T20:23:55;100056.28;;;14.30;70.17
36852;BME280;22784;52.476;13.424;2022-09-29T20:28:01;100039.34;;;14.19;70.05
36852;BME280;22784;52.476;13.424;2022-09-29T20:32:04;100028.72;;;14.05;70.24
36852;BME280;22784;52.476;13.424;2022-09-29T20:36:12;100055.81;;;14.19;70.30
36852;BME280;22784;52.476;13.424;2022-09-29T20:40:19;100058.75;;;14.12;70.55
36852;BME280;22784;52.476;13.424;2022-09-29T20:44:23;100069.28;;;14.01;70.86
36852;BME280;22784;52.476;13.424;2022-09-29T20:48:27;100072.47;;;13.99;71.13
36852;BME280;22784;52.476;13.424;2022-09-29T20:52:34;100080.81;;;13.96;71.63
36852;BME280;22784;52.476;13.424;2022-09-29T20:56:40;100078.47;;;13.94;71.63
36852;BME280;22784;52.476;13.424;2022-09-29T21:00:44;100095.03;;;14.07;71.56
36852;BME280;22784;52.476;13.424;2022-09-29T21:04:54;100092.50;;;14.12;71.26
36852;BME280;22784;52.476;13.424;2022-09-29T21:08:59;100083.78;;;14.01;71.08
36852;BME280;22784;52.476;13.424;2022-09-29T21:13:08;100107.34;;;14.15;71.37
36852;BME280;22784;52.476;13.424;2022-09-29T21:17:12;100113.97;;;14.17;71.15
36852;BME280;22784;52.476;13.424;2022-09-29T21:21:15;100116.38;;;14.15;70.49
36852;BME280;22784;52.476;13.424;2022-09-29T21:25:19;100120.94;;;14.06;70.29
36852;BME280;22784;52.476;13.424;2022-09-29T21:29:27;100096.69;;;13.88;70.35
36852;BME280;22784;52.476;13.424;2022-09-29T21:33:30;100131.34;;;13.98;69.88
36852;BME280;22784;52.476;13.424;2022-09-29T21:37:34;100121.44;;;13.88;70.28
36852;BME280;22784;52.476;13.424;2022-09-29T21:41:40;100137.91;;;13.88;70.76
36852;BME280;22784;52.476;13.424;2022-09-29T21:45:47;100104.28;;;13.68;70.60
36852;BME280;22784;52.476;13.424;2022-09-29T21:49:51;100151.28;;;13.86;70.00
36852;BME280;22784;52.476;13.424;2022-09-29T21:53:57;100121.22;;;13.66;70.30